WI54 weather

CLOSED Corinth Airport
Athens, Wisconsin, United States

Public forecast

Using degrees Fahrenheit for public forecast. Weather courtesy of forecast.io.

METAR (pilot weather report)

Closest report is Taylor County Airport, 8.9 nm (16.5 km) NW. Retrieved 2019/08/25 02:35 UTC (0 seconds ago):

KMDZ 250235Z AUTO 12003KT 10SM SCT037 BKN047 15/12 A3022 RMK AO2 T01460120

TAF (pilot weather forecast)

Forecast is more than 12 hours old.

Closest forecast is Wausau Downtown Airport, 22.6 nm (41.9 km) E. Retrieved 2019/08/24 00:24 UTC (1 day ago):

TAF KAUW 242321Z 2500/2524 14007KT P6SM SCT050 FM250100 12003KT P6SM SCT200 FM251500 14009KT P6SM SCT030 SCT150 FM251800 14010KT P6SM BKN035